Time;durP1;ratioP1;P1;durP2;ratioP2;P2;SDS_P1;SDS_P2;PMS_P1;PMS_P2;Temp;Humidity;BMP_temperature;BMP_pressure;BME280_temperature;BME280_humidity;BME280_pressure;Samples;Min_cycle;Max_cycle;Signal;HPM_P1;HPM_P2
2023/12/25 00:01:55;;;;;;;3.63;2.03;;;;;;;;;;737979;188;916568;-67
2023/12/25 00:04:21;;;;;;;5.28;2.22;;;;;;;;;;739958;188;921035;-67
2023/12/25 00:06:47;;;;;;;3.37;2.13;;;;;;;;;;733926;184;920538;-68
2023/12/25 00:09:13;;;;;;;2.50;1.27;;;;;;;;;;736168;189;919063;-63
2023/12/25 00:11:38;;;;;;;3.73;1.90;;;;;;;;;;732789;189;922570;-64
2023/12/25 00:14:04;;;;;;;3.70;1.90;;;;;;;;;;732640;188;918233;-64
2023/12/25 00:16:30;;;;;;;4.37;2.47;;;;;;;;;;735126;189;913044;-67
2023/12/25 00:18:58;;;;;;;5.93;2.13;;;;;;;;;;732364;191;914002;-67
2023/12/25 00:21:22;;;;;;;2.90;2.03;;;;;;;;;;730749;188;910174;-63
2023/12/25 00:23:48;;;;;;;3.30;2.10;;;;;;;;;;733333;189;922889;-63
2023/12/25 00:26:13;;;;;;;3.03;1.75;;;;;;;;;;737507;189;1021782;-63
2023/12/25 00:28:39;;;;;;;6.10;1.90;;;;;;;;;;737200;188;819550;-63
2023/12/25 00:31:05;;;;;;;5.10;1.93;;;;;;;;;;734365;188;818826;-63
2023/12/25 00:33:31;;;;;;;3.87;1.80;;;;;;;;;;737625;189;919473;-67
2023/12/25 00:35:57;;;;;;;2.83;1.67;;;;;;;;;;735759;188;815264;-62
2023/12/25 00:38:23;;;;;;;3.30;1.70;;;;;;;;;;733574;188;924990;-62
2023/12/25 00:40:48;;;;;;;2.77;1.63;;;;;;;;;;740045;188;918526;-62
2023/12/25 00:43:14;;;;;;;2.70;1.60;;;;;;;;;;734442;188;918771;-62
2023/12/25 00:45:40;;;;;;;2.73;1.50;;;;;;;;;;733174;187;918100;-68
2023/12/25 00:48:06;;;;;;;2.92;1.67;;;;;;;;;;735637;188;918919;-63
2023/12/25 00:50:32;;;;;;;3.10;1.57;;;;;;;;;;747292;186;920652;-62
2023/12/25 00:52:58;;;;;;;3.63;1.80;;;;;;;;;;739401;187;920170;-68
2023/12/25 00:55:23;;;;;;;2.97;1.67;;;;;;;;;;737791;187;904148;-69
2023/12/25 00:57:49;;;;;;;2.90;1.50;;;;;;;;;;738799;188;919386;-61
2023/12/25 01:00:15;;;;;;;6.87;1.40;;;;;;;;;;735513;188;919151;-61
2023/12/25 01:02:41;;;;;;;4.73;1.60;;;;;;;;;;733250;188;916009;-62
2023/12/25 01:05:09;;;;;;;2.20;1.10;;;;;;;;;;737406;189;919294;-62
2023/12/25 01:07:33;;;;;;;4.10;1.37;;;;;;;;;;737125;187;915635;-61
2023/12/25 01:09:59;;;;;;;2.90;1.30;;;;;;;;;;736250;188;918795;-69
2023/12/25 01:12:24;;;;;;;3.37;1.60;;;;;;;;;;738003;188;916416;-69
2023/12/25 01:14:50;;;;;;;3.50;1.23;;;;;;;;;;731737;189;917479;-69
2023/12/25 01:17:16;;;;;;;4.13;1.40;;;;;;;;;;734066;188;917489;-69
2023/12/25 01:19:42;;;;;;;3.17;1.43;;;;;;;;;;732657;189;816661;-63
2023/12/25 01:22:08;;;;;;;3.33;1.23;;;;;;;;;;738420;187;919035;-69
2023/12/25 01:24:34;;;;;;;2.60;1.20;;;;;;;;;;732110;189;917857;-69
2023/12/25 01:27:00;;;;;;;2.30;1.25;;;;;;;;;;732715;188;919157;-69
2023/12/25 01:29:25;;;;;;;2.33;1.10;;;;;;;;;;739295;188;921392;-70
2023/12/25 01:31:51;;;;;;;2.73;1.27;;;;;;;;;;732535;189;925375;-63
2023/12/25 01:34:18;;;;;;;4.30;1.20;;;;;;;;;;740326;188;921023;-63
2023/12/25 01:36:43;;;;;;;2.77;1.20;;;;;;;;;;742760;187;919242;-70
2023/12/25 01:39:09;;;;;;;2.20;1.20;;;;;;;;;;740308;188;816147;-70
2023/12/25 01:41:35;;;;;;;6.93;1.83;;;;;;;;;;739477;187;918549;-69
2023/12/25 01:44:00;;;;;;;2.90;1.17;;;;;;;;;;730211;187;839384;-70
2023/12/25 01:46:26;;;;;;;2.50;1.20;;;;;;;;;;748441;187;917760;-69
2023/12/25 01:48:52;;;;;;;2.87;1.70;;;;;;;;;;737338;186;919791;-70
2023/12/25 01:51:18;;;;;;;3.07;1.33;;;;;;;;;;734557;188;917140;-64
2023/12/25 01:53:44;;;;;;;2.23;1.17;;;;;;;;;;739850;189;885371;-69
2023/12/25 01:56:10;;;;;;;3.17;1.40;;;;;;;;;;733848;186;916271;-63
2023/12/25 01:58:35;;;;;;;2.13;1.10;;;;;;;;;;731278;189;919043;-71
2023/12/25 02:01:01;;;;;;;2.10;0.90;;;;;;;;;;739153;188;919264;-63
2023/12/25 02:03:27;;;;;;;2.15;1.05;;;;;;;;;;732480;188;817906;-69
2023/12/25 02:05:53;;;;;;;2.00;1.13;;;;;;;;;;735170;189;919311;-63
2023/12/25 02:08:19;;;;;;;3.60;1.17;;;;;;;;;;739838;188;818349;-69
2023/12/25 02:10:45;;;;;;;2.40;1.00;;;;;;;;;;731939;189;815396;-70
2023/12/25 02:13:10;;;;;;;2.50;1.20;;;;;;;;;;737475;187;813086;-63
2023/12/25 02:15:39;;;;;;;2.17;1.17;;;;;;;;;;740655;184;919401;-63
2023/12/25 02:18:02;;;;;;;3.27;1.30;;;;;;;;;;737109;187;916571;-64
2023/12/25 02:20:28;;;;;;;2.73;0.90;;;;;;;;;;742505;187;915967;-70
2023/12/25 02:22:54;;;;;;;2.10;1.10;;;;;;;;;;744536;185;914386;-70
2023/12/25 02:25:20;;;;;;;6.03;1.20;;;;;;;;;;744613;184;918461;-69
2023/12/25 02:27:46;;;;;;;2.63;1.10;;;;;;;;;;737387;185;916612;-63
2023/12/25 02:30:11;;;;;;;3.13;1.20;;;;;;;;;;730073;191;919049;-70
2023/12/25 02:32:37;;;;;;;4.17;1.50;;;;;;;;;;736629;189;919436;-69
2023/12/25 02:35:03;;;;;;;2.00;0.90;;;;;;;;;;733897;189;822682;-69
2023/12/25 02:37:29;;;;;;;3.70;0.97;;;;;;;;;;732123;188;920345;-70
2023/12/25 02:39:55;;;;;;;2.50;0.83;;;;;;;;;;733662;189;918279;-64
2023/12/25 02:42:21;;;;;;;2.40;1.23;;;;;;;;;;748717;186;1020350;-69
2023/12/25 02:44:47;;;;;;;2.67;0.93;;;;;;;;;;745222;184;917208;-63
2023/12/25 02:47:13;;;;;;;2.20;0.90;;;;;;;;;;736068;187;1023968;-65
2023/12/25 02:49:38;;;;;;;2.50;1.10;;;;;;;;;;736877;188;862447;-63
2023/12/25 02:52:04;;;;;;;2.23;0.90;;;;;;;;;;732093;188;917444;-71
2023/12/25 02:54:30;;;;;;;2.60;1.30;;;;;;;;;;730585;187;917553;-62
2023/12/25 02:56:56;;;;;;;2.50;1.30;;;;;;;;;;740111;188;818348;-63
2023/12/25 02:59:22;;;;;;;1.90;0.80;;;;;;;;;;732935;187;917191;-64
2023/12/25 03:01:48;;;;;;;2.30;1.00;;;;;;;;;;735119;187;918381;-62
2023/12/25 03:04:13;;;;;;;2.53;1.10;;;;;;;;;;741235;187;918804;-63
2023/12/25 03:06:39;;;;;;;2.53;1.03;;;;;;;;;;733278;189;918889;-62
2023/12/25 03:09:05;;;;;;;1.83;0.80;;;;;;;;;;734036;189;831716;-63
2023/12/25 03:11:31;;;;;;;2.10;0.93;;;;;;;;;;736733;188;919328;-63
2023/12/25 03:13:57;;;;;;;4.23;1.03;;;;;;;;;;740289;187;918974;-68
2023/12/25 03:16:23;;;;;;;2.13;1.00;;;;;;;;;;738796;186;923636;-63
2023/12/25 03:18:48;;;;;;;1.90;0.90;;;;;;;;;;736247;187;919627;-63
2023/12/25 03:21:15;;;;;;;2.30;1.17;;;;;;;;;;750416;187;917826;-63
2023/12/25 03:23:40;;;;;;;2.00;1.00;;;;;;;;;;737963;184;918803;-63
2023/12/25 03:26:06;;;;;;;3.23;1.20;;;;;;;;;;734141;187;920234;-63
2023/12/25 03:28:32;;;;;;;2.23;1.20;;;;;;;;;;738564;188;822342;-63
2023/12/25 03:30:58;;;;;;;2.20;1.02;;;;;;;;;;733243;188;920751;-63
2023/12/25 03:33:24;;;;;;;2.47;1.10;;;;;;;;;;731273;188;919070;-62
2023/12/25 03:35:50;;;;;;;1.90;0.90;;;;;;;;;;728657;188;920666;-63
2023/12/25 03:38:15;;;;;;;3.80;1.13;;;;;;;;;;736796;187;918216;-62
2023/12/25 03:40:41;;;;;;;2.10;0.90;;;;;;;;;;728577;190;817186;-64
2023/12/25 03:43:07;;;;;;;2.23;1.03;;;;;;;;;;729381;191;919452;-63
2023/12/25 03:45:33;;;;;;;2.37;1.07;;;;;;;;;;732363;188;816209;-63
2023/12/25 03:47:59;;;;;;;7.30;1.20;;;;;;;;;;731230;189;931318;-63
2023/12/25 03:50:25;;;;;;;2.10;0.90;;;;;;;;;;724215;190;918760;-63
2023/12/25 03:52:51;;;;;;;2.53;1.00;;;;;;;;;;743687;185;914387;-63
2023/12/25 03:55:16;;;;;;;1.97;0.90;;;;;;;;;;746625;186;814765;-63
2023/12/25 03:57:42;;;;;;;2.20;1.20;;;;;;;;;;729127;189;934092;-64
2023/12/25 04:00:08;;;;;;;2.53;0.90;;;;;;;;;;747317;186;816776;-63
2023/12/25 04:02:34;;;;;;;1.80;0.70;;;;;;;;;;734630;187;814085;-63
2023/12/25 04:05:00;;;;;;;2.40;1.00;;;;;;;;;;714519;194;918754;-62
2023/12/25 04:07:26;;;;;;;2.77;1.13;;;;;;;;;;721318;192;919143;-68
2023/12/25 04:09:51;;;;;;;2.00;0.80;;;;;;;;;;738591;188;918777;-69
2023/12/25 04:12:17;;;;;;;2.13;1.00;;;;;;;;;;736178;186;907703;-67
2023/12/25 04:14:43;;;;;;;2.00;0.90;;;;;;;;;;734275;188;1020761;-69
2023/12/25 04:17:09;;;;;;;2.20;0.90;;;;;;;;;;736522;188;817858;-68
2023/12/25 04:19:35;;;;;;;2.10;0.77;;;;;;;;;;735275;189;924953;-68
2023/12/25 04:22:01;;;;;;;3.07;0.90;;;;;;;;;;730781;189;920064;-69
2023/12/25 04:24:26;;;;;;;1.80;0.70;;;;;;;;;;740298;189;919309;-68
2023/12/25 04:26:52;;;;;;;2.90;0.97;;;;;;;;;;734007;187;919182;-68
2023/12/25 04:29:18;;;;;;;1.77;0.70;;;;;;;;;;730927;188;917730;-70
2023/12/25 04:31:44;;;;;;;2.30;0.90;;;;;;;;;;731880;189;919170;-68
2023/12/25 04:34:10;;;;;;;1.90;0.80;;;;;;;;;;748796;184;875916;-68
2023/12/25 04:36:36;;;;;;;2.00;0.80;;;;;;;;;;741766;184;822399;-63
2023/12/25 04:39:02;;;;;;;2.07;1.03;;;;;;;;;;743431;185;918417;-63
2023/12/25 04:41:28;;;;;;;3.97;0.90;;;;;;;;;;742774;188;919003;-62
2023/12/25 04:43:53;;;;;;;2.10;0.90;;;;;;;;;;742339;185;921821;-63
2023/12/25 04:46:19;;;;;;;1.80;0.70;;;;;;;;;;731763;189;926602;-69
2023/12/25 04:48:45;;;;;;;3.00;0.97;;;;;;;;;;732929;188;919746;-68
2023/12/25 04:51:11;;;;;;;2.12;1.08;;;;;;;;;;723076;191;914782;-68
2023/12/25 04:53:37;;;;;;;1.80;0.80;;;;;;;;;;738610;188;818056;-62
2023/12/25 04:56:02;;;;;;;2.00;0.93;;;;;;;;;;740662;188;722722;-68
2023/12/25 04:58:28;;;;;;;2.00;1.10;;;;;;;;;;732624;188;919108;-64
2023/12/25 05:00:54;;;;;;;2.20;1.07;;;;;;;;;;731422;188;919377;-62
2023/12/25 05:03:21;;;;;;;1.90;0.90;;;;;;;;;;732178;189;919391;-63
2023/12/25 05:05:46;;;;;;;3.40;0.90;;;;;;;;;;736594;189;911472;-69
2023/12/25 05:08:12;;;;;;;2.13;0.93;;;;;;;;;;733600;188;888879;-62
2023/12/25 05:10:37;;;;;;;1.90;0.80;;;;;;;;;;734712;189;919357;-69
2023/12/25 05:13:03;;;;;;;2.03;0.80;;;;;;;;;;743818;189;618950;-62
2023/12/25 05:15:29;;;;;;;2.00;0.80;;;;;;;;;;733865;189;917162;-69
2023/12/25 05:17:55;;;;;;;2.10;0.80;;;;;;;;;;734508;189;918459;-69
2023/12/25 05:20:21;;;;;;;1.83;0.80;;;;;;;;;;736755;190;860001;-63
2023/12/25 05:22:47;;;;;;;1.80;0.80;;;;;;;;;;735615;187;919209;-63
2023/12/25 05:25:13;;;;;;;1.97;0.70;;;;;;;;;;733122;188;921727;-70
2023/12/25 05:27:38;;;;;;;2.43;0.90;;;;;;;;;;729606;189;635864;-69
2023/12/25 05:30:04;;;;;;;2.20;0.80;;;;;;;;;;737742;187;935953;-68
2023/12/25 05:32:30;;;;;;;2.67;0.80;;;;;;;;;;741956;186;629400;-70
2023/12/25 05:34:56;;;;;;;2.30;0.80;;;;;;;;;;743319;185;630584;-69
2023/12/25 05:37:22;;;;;;;2.00;0.90;;;;;;;;;;744003;185;625150;-62
2023/12/25 05:39:48;;;;;;;1.80;0.70;;;;;;;;;;742287;185;921621;-68
2023/12/25 05:42:14;;;;;;;2.40;0.70;;;;;;;;;;731817;188;919953;-63
2023/12/25 05:44:39;;;;;;;1.90;0.70;;;;;;;;;;738371;189;910575;-68
2023/12/25 05:47:06;;;;;;;1.90;0.80;;;;;;;;;;732244;188;907173;-69
2023/12/25 05:49:31;;;;;;;1.93;0.80;;;;;;;;;;731405;188;929927;-68
2023/12/25 05:51:57;;;;;;;2.30;1.00;;;;;;;;;;739618;189;919261;-68
2023/12/25 05:54:23;;;;;;;2.10;0.90;;;;;;;;;;732704;188;918829;-68
2023/12/25 05:56:49;;;;;;;1.90;0.70;;;;;;;;;;730092;189;919250;-69
2023/12/25 05:59:15;;;;;;;1.90;0.70;;;;;;;;;;730469;190;918660;-63
2023/12/25 06:01:41;;;;;;;3.23;0.97;;;;;;;;;;738325;189;918341;-68
2023/12/25 06:04:06;;;;;;;2.20;0.80;;;;;;;;;;734120;188;926204;-64
2023/12/25 06:06:32;;;;;;;2.10;0.80;;;;;;;;;;730299;190;920256;-63
2023/12/25 06:08:58;;;;;;;1.90;0.90;;;;;;;;;;736147;190;918590;-63
2023/12/25 06:11:24;;;;;;;3.17;1.05;;;;;;;;;;733691;188;921009;-63
2023/12/25 06:13:50;;;;;;;1.90;0.80;;;;;;;;;;732257;188;918811;-62
2023/12/25 06:16:16;;;;;;;2.20;0.90;;;;;;;;;;738715;189;918203;-62
2023/12/25 06:18:42;;;;;;;1.90;0.77;;;;;;;;;;733612;189;845290;-69
2023/12/25 06:21:08;;;;;;;2.10;0.80;;;;;;;;;;733596;190;945407;-68
2023/12/25 06:23:34;;;;;;;1.80;0.70;;;;;;;;;;734792;189;924842;-67
2023/12/25 06:25:59;;;;;;;2.10;1.00;;;;;;;;;;741158;187;917066;-64
2023/12/25 06:28:25;;;;;;;1.90;0.80;;;;;;;;;;737786;188;919279;-70
2023/12/25 06:30:51;;;;;;;1.80;0.70;;;;;;;;;;730487;189;918786;-69
2023/12/25 06:33:17;;;;;;;2.10;0.90;;;;;;;;;;736520;190;816548;-69
2023/12/25 06:35:42;;;;;;;3.30;0.90;;;;;;;;;;734297;188;922146;-63
2023/12/25 06:38:08;;;;;;;2.30;0.90;;;;;;;;;;738425;188;918668;-69
2023/12/25 06:40:34;;;;;;;2.00;0.77;;;;;;;;;;733502;188;915565;-62
2023/12/25 06:43:00;;;;;;;2.20;1.10;;;;;;;;;;735140;188;915170;-62
2023/12/25 06:45:26;;;;;;;2.50;0.90;;;;;;;;;;729658;188;911362;-63
2023/12/25 06:47:52;;;;;;;2.00;0.70;;;;;;;;;;738575;187;920350;-62
2023/12/25 06:50:18;;;;;;;1.80;0.80;;;;;;;;;;732866;188;914416;-69
2023/12/25 06:52:43;;;;;;;2.53;1.00;;;;;;;;;;729133;189;918204;-70
2023/12/25 06:55:10;;;;;;;2.00;0.83;;;;;;;;;;730557;189;908975;-63
2023/12/25 06:57:36;;;;;;;1.80;0.70;;;;;;;;;;739623;187;916495;-62
2023/12/25 07:00:01;;;;;;;2.20;0.80;;;;;;;;;;738628;185;915354;-69
2023/12/25 07:02:29;;;;;;;3.50;1.10;;;;;;;;;;733054;187;921088;-69
2023/12/25 07:04:53;;;;;;;2.10;0.80;;;;;;;;;;738001;189;916962;-69
2023/12/25 07:07:19;;;;;;;2.10;0.70;;;;;;;;;;733870;188;1021388;-69
2023/12/25 07:09:44;;;;;;;1.93;0.90;;;;;;;;;;735639;187;919556;-63
2023/12/25 07:12:10;;;;;;;2.23;0.73;;;;;;;;;;736804;189;919369;-63
2023/12/25 07:14:36;;;;;;;1.90;0.80;;;;;;;;;;732895;187;917711;-69
2023/12/25 07:17:04;;;;;;;2.77;0.90;;;;;;;;;;731786;188;913678;-71
2023/12/25 07:19:28;;;;;;;2.30;0.87;;;;;;;;;;736053;189;909450;-69
2023/12/25 07:21:54;;;;;;;2.37;1.10;;;;;;;;;;739383;188;635371;-62
2023/12/25 07:24:20;;;;;;;2.00;0.80;;;;;;;;;;734118;188;876716;-68
2023/12/25 07:26:45;;;;;;;2.10;0.90;;;;;;;;;;732980;188;918263;-68
2023/12/25 07:29:11;;;;;;;3.13;0.70;;;;;;;;;;738457;188;809812;-63
2023/12/25 07:31:37;;;;;;;2.00;0.90;;;;;;;;;;732123;189;919254;-62
2023/12/25 07:34:03;;;;;;;1.90;0.73;;;;;;;;;;731545;189;918988;-69
2023/12/25 07:36:29;;;;;;;1.80;0.70;;;;;;;;;;736121;188;922103;-69
2023/12/25 07:38:55;;;;;;;2.43;0.97;;;;;;;;;;732494;188;911756;-62
2023/12/25 07:41:21;;;;;;;2.20;0.83;;;;;;;;;;733173;189;910322;-69
2023/12/25 07:43:46;;;;;;;2.00;0.90;;;;;;;;;;736353;190;923574;-63
2023/12/25 07:46:12;;;;;;;2.43;0.90;;;;;;;;;;733324;187;920397;-69
2023/12/25 07:48:38;;;;;;;1.93;0.80;;;;;;;;;;732709;188;915885;-62
2023/12/25 07:51:04;;;;;;;2.17;0.77;;;;;;;;;;732768;188;918871;-69
2023/12/25 07:53:30;;;;;;;2.10;0.90;;;;;;;;;;738432;190;917489;-62
2023/12/25 07:55:56;;;;;;;2.53;0.90;;;;;;;;;;729304;190;922430;-71
2023/12/25 07:58:21;;;;;;;2.47;1.00;;;;;;;;;;733106;187;924678;-62
2023/12/25 08:00:48;;;;;;;2.23;1.00;;;;;;;;;;738704;187;816418;-61
2023/12/25 08:03:13;;;;;;;2.20;0.90;;;;;;;;;;732544;189;917860;-69
2023/12/25 08:05:39;;;;;;;1.97;0.87;;;;;;;;;;735357;188;913148;-69
2023/12/25 08:08:05;;;;;;;2.00;1.03;;;;;;;;;;737917;189;918273;-69
2023/12/25 08:10:31;;;;;;;2.00;0.87;;;;;;;;;;731669;189;975154;-71
2023/12/25 08:12:58;;;;;;;2.27;0.80;;;;;;;;;;733506;189;911596;-62
2023/12/25 08:15:23;;;;;;;3.17;0.97;;;;;;;;;;734211;188;816849;-69
2023/12/25 08:17:49;;;;;;;2.67;1.23;;;;;;;;;;748087;188;813492;-69
2023/12/25 08:20:15;;;;;;;2.90;0.90;;;;;;;;;;739912;184;919410;-70
2023/12/25 08:22:40;;;;;;;3.60;0.97;;;;;;;;;;741405;189;919189;-68
2023/12/25 08:25:07;;;;;;;1.90;0.80;;;;;;;;;;743888;186;920354;-62
2023/12/25 08:27:32;;;;;;;2.07;0.80;;;;;;;;;;739021;188;917459;-61
2023/12/25 08:29:58;;;;;;;2.07;0.90;;;;;;;;;;735767;187;1124226;-70
2023/12/25 08:32:24;;;;;;;2.20;1.07;;;;;;;;;;738063;188;918244;-62
2023/12/25 08:34:50;;;;;;;6.40;1.47;;;;;;;;;;733974;188;817882;-62
2023/12/25 08:37:16;;;;;;;2.20;1.00;;;;;;;;;;734848;188;942813;-71
2023/12/25 08:39:43;;;;;;;1.90;0.80;;;;;;;;;;737525;190;924621;-62
2023/12/25 08:42:09;;;;;;;2.17;0.97;;;;;;;;;;748097;187;715101;-69
2023/12/25 08:44:34;;;;;;;2.40;1.00;;;;;;;;;;738513;185;917861;-61
2023/12/25 08:47:00;;;;;;;2.90;1.10;;;;;;;;;;732622;185;914462;-62
2023/12/25 08:49:26;;;;;;;2.20;1.00;;;;;;;;;;736851;189;918347;-69
2023/12/25 08:51:52;;;;;;;2.37;0.90;;;;;;;;;;732394;189;917477;-69
2023/12/25 08:54:18;;;;;;;2.10;0.90;;;;;;;;;;735580;187;818314;-70
2023/12/25 08:56:44;;;;;;;2.10;0.95;;;;;;;;;;737845;189;923305;-69
2023/12/25 08:59:10;;;;;;;1.90;0.80;;;;;;;;;;738604;186;921026;-69
2023/12/25 09:01:35;;;;;;;2.58;1.10;;;;;;;;;;737488;185;913699;-69
2023/12/25 09:04:01;;;;;;;2.40;1.10;;;;;;;;;;730341;188;917910;-69
2023/12/25 09:06:27;;;;;;;4.27;1.10;;;;;;;;;;730003;191;1211014;-70
2023/12/25 09:08:53;;;;;;;2.20;1.10;;;;;;;;;;732949;190;919019;-62
2023/12/25 09:11:19;;;;;;;3.20;1.23;;;;;;;;;;734771;189;916867;-69
2023/12/25 09:13:45;;;;;;;3.50;1.23;;;;;;;;;;738333;188;912498;-61
2023/12/25 09:16:11;;;;;;;5.50;2.07;;;;;;;;;;732146;190;920322;-69
2023/12/25 09:18:36;;;;;;;3.63;1.50;;;;;;;;;;733474;188;919554;-70
2023/12/25 09:21:02;;;;;;;2.87;1.70;;;;;;;;;;738654;188;918012;-61
2023/12/25 09:23:28;;;;;;;5.37;1.30;;;;;;;;;;732786;189;913150;-69
2023/12/25 09:25:54;;;;;;;2.13;0.90;;;;;;;;;;734738;189;918780;-69
2023/12/25 09:28:20;;;;;;;2.33;1.00;;;;;;;;;;737357;189;922230;-69
2023/12/25 09:30:46;;;;;;;2.00;0.93;;;;;;;;;;732706;188;919256;-69
2023/12/25 09:33:12;;;;;;;2.60;0.97;;;;;;;;;;733239;189;817485;-70
2023/12/25 09:35:37;;;;;;;2.20;1.10;;;;;;;;;;728013;188;919906;-68
2023/12/25 09:38:03;;;;;;;2.90;1.23;;;;;;;;;;738617;187;914022;-69
2023/12/25 09:40:29;;;;;;;2.07;1.10;;;;;;;;;;727170;187;1017617;-69
2023/12/25 09:42:55;;;;;;;2.60;1.70;;;;;;;;;;728070;188;918862;-69
2023/12/25 09:45:21;;;;;;;2.17;1.00;;;;;;;;;;730161;188;918508;-69
2023/12/25 09:47:47;;;;;;;2.17;0.87;;;;;;;;;;731201;189;919236;-69
2023/12/25 09:50:13;;;;;;;2.47;1.23;;;;;;;;;;733927;188;932704;-69
2023/12/25 09:52:38;;;;;;;3.80;1.00;;;;;;;;;;737917;189;923904;-62
2023/12/25 09:55:05;;;;;;;2.37;1.00;;;;;;;;;;733918;186;913772;-61
2023/12/25 09:57:30;;;;;;;2.40;1.00;;;;;;;;;;738300;185;821956;-61
2023/12/25 09:59:56;;;;;;;2.62;0.80;;;;;;;;;;739613;189;817915;-61
2023/12/25 10:02:22;;;;;;;3.00;1.10;;;;;;;;;;732203;190;818560;-69
2023/12/25 10:04:48;;;;;;;3.90;1.17;;;;;;;;;;733421;188;918416;-69
2023/12/25 10:07:14;;;;;;;2.40;1.13;;;;;;;;;;735884;186;817478;-69
2023/12/25 10:09:40;;;;;;;3.77;1.13;;;;;;;;;;737026;188;913614;-61
2023/12/25 10:12:06;;;;;;;2.57;1.17;;;;;;;;;;732345;188;996461;-69
2023/12/25 10:14:31;;;;;;;2.77;1.47;;;;;;;;;;734927;186;850528;-61
2023/12/25 10:16:58;;;;;;;2.10;1.00;;;;;;;;;;737222;189;916872;-69
2023/12/25 10:19:23;;;;;;;2.50;1.00;;;;;;;;;;733364;189;913990;-61
2023/12/25 10:21:52;;;;;;;5.07;1.10;;;;;;;;;;732762;188;1122381;-61
2023/12/25 10:24:15;;;;;;;2.57;1.03;;;;;;;;;;740163;187;820196;-62
2023/12/25 10:26:41;;;;;;;2.00;0.90;;;;;;;;;;733816;187;818755;-62
2023/12/25 10:29:07;;;;;;;2.20;1.07;;;;;;;;;;733016;188;881721;-69
2023/12/25 10:31:33;;;;;;;2.40;1.10;;;;;;;;;;737170;187;917064;-62
2023/12/25 10:33:59;;;;;;;2.40;1.23;;;;;;;;;;742484;185;916708;-63
2023/12/25 10:36:24;;;;;;;2.03;0.97;;;;;;;;;;740949;187;919950;-61
2023/12/25 10:38:50;;;;;;;2.40;1.20;;;;;;;;;;733011;187;915989;-62
2023/12/25 10:41:18;;;;;;;4.03;1.07;;;;;;;;;;737228;188;918739;-61
2023/12/25 10:43:42;;;;;;;5.17;1.50;;;;;;;;;;732005;188;915382;-69
2023/12/25 10:46:08;;;;;;;2.83;1.27;;;;;;;;;;738742;187;915224;-69
2023/12/25 10:48:34;;;;;;;2.33;1.00;;;;;;;;;;745275;185;918455;-69
2023/12/25 10:50:59;;;;;;;4.37;1.77;;;;;;;;;;737153;188;916317;-63
2023/12/25 10:53:25;;;;;;;2.83;1.50;;;;;;;;;;733689;188;906199;-61
2023/12/25 10:55:51;;;;;;;2.83;1.13;;;;;;;;;;739048;188;926286;-61
2023/12/25 10:58:17;;;;;;;2.53;1.10;;;;;;;;;;734432;188;882603;-70
2023/12/25 11:00:43;;;;;;;2.10;0.90;;;;;;;;;;731814;188;934569;-69
2023/12/25 11:03:12;;;;;;;3.60;1.10;;;;;;;;;;734042;187;911568;-71
2023/12/25 11:05:34;;;;;;;2.10;1.27;;;;;;;;;;736196;188;901106;-61
2023/12/25 11:08:00;;;;;;;2.20;1.10;;;;;;;;;;734787;187;816839;-61
2023/12/25 11:10:29;;;;;;;2.43;1.20;;;;;;;;;;732652;188;916365;-69
2023/12/25 11:12:55;;;;;;;2.80;1.35;;;;;;;;;;740068;189;921969;-69
2023/12/25 11:15:20;;;;;;;2.40;1.13;;;;;;;;;;731512;189;923653;-61
2023/12/25 11:17:46;;;;;;;2.13;0.93;;;;;;;;;;731229;189;919291;-61
2023/12/25 11:20:12;;;;;;;2.63;1.20;;;;;;;;;;736966;189;1020966;-69
2023/12/25 11:22:40;;;;;;;2.30;1.10;;;;;;;;;;733075;190;919656;-61
2023/12/25 11:25:07;;;;;;;2.40;1.30;;;;;;;;;;734195;188;924576;-69
2023/12/25 11:27:34;;;;;;;2.17;1.07;;;;;;;;;;736823;189;923465;-61
2023/12/25 11:30:00;;;;;;;2.30;1.03;;;;;;;;;;740955;188;820355;-61
2023/12/25 11:32:27;;;;;;;2.50;1.07;;;;;;;;;;734913;187;917547;-61
2023/12/25 11:34:52;;;;;;;2.07;1.00;;;;;;;;;;735153;185;848121;-69
2023/12/25 11:37:19;;;;;;;2.83;1.07;;;;;;;;;;737645;189;815952;-61
2023/12/25 11:39:50;;;;;;;2.10;1.10;;;;;;;;;;735464;188;798504;-60
2023/12/25 11:42:15;;;;;;;2.10;0.90;;;;;;;;;;733907;188;821475;-69
2023/12/25 11:44:42;;;;;;;2.47;1.13;;;;;;;;;;732786;189;919344;-69
2023/12/25 11:47:07;;;;;;;3.17;1.53;;;;;;;;;;738089;188;918619;-61
2023/12/25 11:49:33;;;;;;;2.77;1.23;;;;;;;;;;736499;187;917930;-61
2023/12/25 11:51:59;;;;;;;3.50;1.53;;;;;;;;;;734708;188;861105;-69
2023/12/25 11:54:28;;;;;;;2.73;1.20;;;;;;;;;;736780;189;855189;-61
2023/12/25 11:56:53;;;;;;;5.23;1.23;;;;;;;;;;732841;189;918233;-69
2023/12/25 11:59:19;;;;;;;4.63;1.27;;;;;;;;;;733113;188;957253;-70
2023/12/25 12:01:47;;;;;;;2.33;1.13;;;;;;;;;;731338;189;894222;-70
2023/12/25 12:04:12;;;;;;;2.43;1.30;;;;;;;;;;736400;189;914046;-70
2023/12/25 12:06:39;;;;;;;2.37;1.30;;;;;;;;;;731076;188;919850;-61
2023/12/25 12:09:05;;;;;;;2.47;1.00;;;;;;;;;;732636;188;922788;-61
2023/12/25 12:11:32;;;;;;;2.40;1.10;;;;;;;;;;735986;188;818660;-62
2023/12/25 12:13:57;;;;;;;2.20;1.17;;;;;;;;;;740521;187;814792;-69
2023/12/25 12:16:23;;;;;;;3.07;1.50;;;;;;;;;;730849;188;864408;-69
2023/12/25 12:18:48;;;;;;;2.30;1.30;;;;;;;;;;737610;189;878706;-61
2023/12/25 12:21:14;;;;;;;3.27;1.53;;;;;;;;;;731113;188;918188;-61
2023/12/25 12:23:40;;;;;;;3.33;1.50;;;;;;;;;;731640;191;918264;-71
2023/12/25 12:26:09;;;;;;;4.97;1.60;;;;;;;;;;732065;188;914463;-69
2023/12/25 12:28:35;;;;;;;3.30;1.20;;;;;;;;;;730202;191;919177;-61
2023/12/25 12:31:00;;;;;;;5.90;1.50;;;;;;;;;;743223;184;916837;-70
2023/12/25 12:33:26;;;;;;;3.13;1.30;;;;;;;;;;732895;187;923087;-70
2023/12/25 12:35:52;;;;;;;4.63;1.40;;;;;;;;;;734400;189;920082;-61
2023/12/25 12:38:19;;;;;;;2.50;1.40;;;;;;;;;;732722;188;918682;-61
2023/12/25 12:40:46;;;;;;;2.90;1.50;;;;;;;;;;732244;189;918833;-61
2023/12/25 12:43:13;;;;;;;2.60;1.13;;;;;;;;;;735886;188;921998;-61
2023/12/25 12:45:38;;;;;;;2.33;1.23;;;;;;;;;;726542;190;818345;-61
2023/12/25 12:48:05;;;;;;;4.03;1.43;;;;;;;;;;730700;189;814966;-62
2023/12/25 12:50:31;;;;;;;5.80;1.57;;;;;;;;;;733850;188;823055;-68
2023/12/25 12:52:56;;;;;;;3.20;1.37;;;;;;;;;;735922;191;919012;-61
2023/12/25 12:55:22;;;;;;;2.20;1.00;;;;;;;;;;734420;189;920385;-69
2023/12/25 12:57:48;;;;;;;3.53;1.10;;;;;;;;;;723132;189;914489;-69
2023/12/25 13:00:14;;;;;;;3.30;1.53;;;;;;;;;;732561;190;914478;-71
2023/12/25 13:02:42;;;;;;;2.60;1.20;;;;;;;;;;733249;189;918561;-61
2023/12/25 13:05:06;;;;;;;5.60;1.50;;;;;;;;;;736463;189;925384;-61
2023/12/25 13:07:32;;;;;;;4.30;1.33;;;;;;;;;;738672;187;921347;-61
2023/12/25 13:09:58;;;;;;;4.70;1.67;;;;;;;;;;734515;188;817161;-61
2023/12/25 13:12:25;;;;;;;2.95;1.37;;;;;;;;;;740626;186;919287;-61
2023/12/25 13:14:51;;;;;;;3.30;1.40;;;;;;;;;;742156;186;930704;-69
2023/12/25 13:17:16;;;;;;;3.67;1.57;;;;;;;;;;753093;182;818673;-61
2023/12/25 13:19:41;;;;;;;2.40;1.10;;;;;;;;;;745538;182;1020625;-70
2023/12/25 13:22:07;;;;;;;10.37;1.50;;;;;;;;;;727066;188;836463;-69
2023/12/25 13:24:33;;;;;;;3.07;1.63;;;;;;;;;;735084;188;916103;-69
2023/12/25 13:27:03;;;;;;;3.80;1.60;;;;;;;;;;734025;187;844200;-70
2023/12/25 13:29:25;;;;;;;3.70;1.20;;;;;;;;;;733534;185;915593;-61
2023/12/25 13:31:51;;;;;;;2.50;1.20;;;;;;;;;;741872;188;922828;-61
2023/12/25 13:34:16;;;;;;;2.00;0.90;;;;;;;;;;723937;190;918618;-61
2023/12/25 13:36:42;;;;;;;2.10;1.00;;;;;;;;;;750363;182;918894;-61
2023/12/25 13:39:09;;;;;;;3.00;0.93;;;;;;;;;;746122;183;917023;-69
2023/12/25 13:41:36;;;;;;;2.00;1.10;;;;;;;;;;750200;186;920690;-70
2023/12/25 13:44:01;;;;;;;2.33;1.27;;;;;;;;;;740405;185;920150;-70
2023/12/25 13:46:27;;;;;;;3.43;1.10;;;;;;;;;;734648;187;823417;-70
2023/12/25 13:48:53;;;;;;;3.10;1.13;;;;;;;;;;742711;188;814416;-61
2023/12/25 13:51:19;;;;;;;3.10;1.40;;;;;;;;;;732846;187;918271;-61
2023/12/25 13:53:45;;;;;;;4.18;1.70;;;;;;;;;;733113;189;920713;-69
2023/12/25 13:56:10;;;;;;;2.80;1.20;;;;;;;;;;737327;189;838696;-70
2023/12/25 13:58:36;;;;;;;3.43;1.30;;;;;;;;;;732896;188;905999;-70
2023/12/25 14:01:02;;;;;;;2.70;1.27;;;;;;;;;;732945;187;823508;-69
2023/12/25 14:03:28;;;;;;;3.50;1.53;;;;;;;;;;734247;189;919210;-61
2023/12/25 14:05:54;;;;;;;2.60;1.20;;;;;;;;;;738954;186;816243;-60
2023/12/25 14:08:20;;;;;;;2.10;1.10;;;;;;;;;;739636;186;919296;-70
2023/12/25 14:10:45;;;;;;;2.40;1.33;;;;;;;;;;732770;188;912384;-70
2023/12/25 14:13:11;;;;;;;2.93;1.50;;;;;;;;;;737899;188;813274;-70
2023/12/25 14:15:38;;;;;;;4.68;1.37;;;;;;;;;;735528;187;921199;-66
2023/12/25 14:18:03;;;;;;;2.60;1.30;;;;;;;;;;734187;188;822598;-69
2023/12/25 14:20:29;;;;;;;3.90;1.33;;;;;;;;;;738304;189;915041;-61